createdAt,value
2019-05-16T00:01:38.436Z,102366.31
2019-05-16T00:04:09.655Z,102367.65
2019-05-16T00:06:40.933Z,102373.48
2019-05-16T00:09:12.616Z,102368.25
2019-05-16T00:11:43.967Z,102363.36
2019-05-16T00:14:15.549Z,102359.56
2019-05-16T00:16:48.378Z,102364.92
2019-05-16T00:19:20.172Z,102360.47
2019-05-16T00:21:51.804Z,102356.27
2019-05-16T00:24:24.983Z,102350.39
2019-05-16T00:26:58.016Z,102346.62
2019-05-16T00:29:29.853Z,102348.83
2019-05-16T00:32:01.446Z,102340.27
2019-05-16T00:34:32.942Z,102342.47
2019-05-16T00:37:04.865Z,102343.30
2019-05-16T00:39:36.180Z,102338.84
2019-05-16T00:42:08.846Z,102333.56
2019-05-16T00:44:41.141Z,102329.11
2019-05-16T00:47:12.442Z,102321.23
2019-05-16T00:49:43.961Z,102325.08
2019-05-16T00:52:15.299Z,102315.70
2019-05-16T00:54:48.649Z,102317.67
2019-05-16T00:57:20.110Z,102316.12
2019-05-16T00:59:52.374Z,102312.58
2019-05-16T01:02:23.974Z,102308.73
2019-05-16T01:04:55.322Z,102300.67
2019-05-16T01:07:29.596Z,102299.28
2019-05-16T01:10:00.859Z,102299.28
2019-05-16T01:12:32.324Z,102297.47
2019-05-16T01:15:08.345Z,102291.84
2019-05-16T01:17:41.627Z,102294.45
2019-05-16T01:20:13.126Z,102292.58
2019-05-16T01:22:44.317Z,102293.88
2019-05-16T01:25:15.941Z,102291.59
2019-05-16T01:27:47.690Z,102281.37
2019-05-16T01:30:20.203Z,102288.03
2019-05-16T01:32:52.182Z,102279.16
2019-05-16T01:35:23.485Z,102275.92
2019-05-16T01:37:55.188Z,102276.83
2019-05-16T01:40:28.069Z,102278.98
2019-05-16T01:42:59.524Z,102269.78
2019-05-16T01:45:31.113Z,102259.39
2019-05-16T01:48:03.141Z,102267.87
2019-05-16T01:50:38.610Z,102265.19
2019-05-16T01:53:09.860Z,102257.00
2019-05-16T01:55:41.040Z,102267.39
2019-05-16T01:58:19.426Z,102258.04
2019-05-16T02:01:02.672Z,102261.13
2019-05-16T02:03:22.803Z,102258.00
2019-05-16T02:05:54.145Z,102258.19
2019-05-16T02:08:29.951Z,102251.42
2019-05-16T02:11:01.703Z,102250.86
2019-05-16T02:13:33.446Z,102242.32
2019-05-16T02:16:05.134Z,102233.89
2019-05-16T02:18:38.187Z,102231.25
2019-05-16T02:21:09.854Z,102232.97
2019-05-16T02:23:41.493Z,102232.02
2019-05-16T02:26:12.792Z,102231.25
2019-05-16T02:28:44.018Z,102232.45
2019-05-16T02:31:15.802Z,102228.95
2019-05-16T02:33:50.985Z,102220.37
2019-05-16T02:36:21.867Z,102216.40
2019-05-16T02:38:55.717Z,102205.99
2019-05-16T02:41:26.436Z,102205.31
2019-05-16T02:44:00.985Z,102207.67
2019-05-16T02:46:31.088Z,102206.22
2019-05-16T02:49:04.896Z,102201.23
2019-05-16T02:51:36.169Z,102201.29
2019-05-16T02:54:10.738Z,102203.55
2019-05-16T02:56:41.743Z,102201.81
2019-05-16T02:59:13.349Z,102199.90
2019-05-16T03:01:44.694Z,102195.72
2019-05-16T03:04:16.556Z,102195.86
2019-05-16T03:06:51.122Z,102196.77
2019-05-16T03:09:21.821Z,102193.66
2019-05-16T03:12:01.057Z,102189.15
2019-05-16T03:14:32.831Z,102195.87
2019-05-16T03:17:05.955Z,102194.00
2019-05-16T03:19:41.513Z,102186.37
2019-05-16T03:22:15.742Z,102183.63
2019-05-16T03:24:46.887Z,102182.39
2019-05-16T03:27:21.368Z,102174.07
2019-05-16T03:29:51.010Z,102179.91
2019-05-16T03:32:24.551Z,102178.52
2019-05-16T03:34:55.911Z,102166.70
2019-05-16T03:37:30.508Z,102166.38
2019-05-16T03:40:00.878Z,102163.31
2019-05-16T03:42:32.188Z,102162.44
2019-05-16T03:45:03.542Z,102163.78
2019-05-16T03:47:34.805Z,102161.48
2019-05-16T03:50:06.802Z,102164.11
2019-05-16T03:52:42.362Z,102146.14
2019-05-16T03:55:11.675Z,102147.05
2019-05-16T03:57:43.062Z,102147.00
2019-05-16T04:00:14.466Z,102140.67
2019-05-16T04:02:45.943Z,102139.28
2019-05-16T04:05:17.168Z,102137.72
2019-05-16T04:07:51.397Z,102135.10
2019-05-16T04:10:21.718Z,102135.80
2019-05-16T04:12:55.463Z,102130.80
2019-05-16T04:15:26.861Z,102133.50
2019-05-16T04:18:01.566Z,102129.52
2019-05-16T04:20:33.222Z,102127.80
2019-05-16T04:23:04.648Z,102126.34
2019-05-16T04:25:36.056Z,102127.31
2019-05-16T04:28:07.451Z,102124.42
2019-05-16T04:30:41.425Z,102120.77
2019-05-16T04:33:11.593Z,102120.82
2019-05-16T04:35:42.906Z,102123.06
2019-05-16T04:38:30.268Z,102115.77
2019-05-16T04:40:47.288Z,102118.29
2019-05-16T04:43:22.086Z,102113.29
2019-05-16T04:46:05.695Z,102117.59
2019-05-16T04:48:56.476Z,102124.90
2019-05-16T04:51:30.522Z,102116.47
2019-05-16T04:54:03.453Z,102114.80
2019-05-16T04:56:34.643Z,102111.68
2019-05-16T04:59:05.892Z,102108.31
2019-05-16T05:01:37.178Z,102108.30
2019-05-16T05:04:14.126Z,102103.32
2019-05-16T05:06:41.346Z,102104.44
2019-05-16T05:09:12.604Z,102104.86
2019-05-16T05:11:44.343Z,102103.56
2019-05-16T05:14:16.002Z,102102.91
2019-05-16T05:16:47.226Z,102105.86
2019-05-16T05:19:20.220Z,102107.04
2019-05-16T05:21:54.988Z,102111.13
2019-05-16T05:24:26.359Z,102108.97
2019-05-16T05:26:59.787Z,102106.56
2019-05-16T05:29:31.231Z,102105.34
2019-05-16T05:32:05.639Z,102097.66
2019-05-16T05:34:39.691Z,102095.34
2019-05-16T05:37:12.601Z,102105.54
2019-05-16T05:39:43.110Z,102100.22
2019-05-16T05:42:14.458Z,102104.14
2019-05-16T05:44:53.672Z,102107.86
2019-05-16T05:47:27.619Z,102101.69
2019-05-16T05:50:00.676Z,102109.69
2019-05-16T05:52:33.432Z,102109.94
2019-05-16T05:55:05.215Z,102110.70
2019-05-16T05:57:36.787Z,102101.30
2019-05-16T06:00:09.912Z,102095.71
2019-05-16T06:02:41.409Z,102104.64
2019-05-16T06:05:13.888Z,102096.64
2019-05-16T06:07:45.298Z,102100.01
2019-05-16T06:10:19.935Z,102096.20
2019-05-16T06:12:52.276Z,102096.04
2019-05-16T06:15:23.522Z,102095.17
2019-05-16T06:17:56.895Z,102102.28
2019-05-16T06:20:30.690Z,102102.76
2019-05-16T06:23:01.250Z,102095.67
2019-05-16T06:25:32.709Z,102099.09
2019-05-16T06:28:04.539Z,102102.28
2019-05-16T06:30:36.041Z,102092.13
2019-05-16T06:33:10.107Z,102088.70
2019-05-16T06:35:41.017Z,102079.66
2019-05-16T06:38:13.393Z,102091.14
2019-05-16T06:40:44.746Z,102092.98
2019-05-16T06:43:20.434Z,102084.85
2019-05-16T06:45:52.507Z,102087.91
2019-05-16T06:48:24.401Z,102083.48
2019-05-16T06:50:56.405Z,102077.82
2019-05-16T06:53:29.846Z,102078.05
2019-05-16T06:56:01.095Z,102082.16
2019-05-16T06:58:44.792Z,102076.41
2019-05-16T07:01:13.066Z,102073.49
2019-05-16T07:03:46.216Z,102068.22
2019-05-16T07:06:45.711Z,102076.44
2019-05-16T07:08:53.818Z,102067.05
2019-05-16T07:11:25.398Z,102068.33
2019-05-16T07:14:10.659Z,102066.39
2019-05-16T07:16:43.380Z,102061.45
2019-05-16T07:19:17.257Z,102064.36
2019-05-16T07:21:50.867Z,102063.98
2019-05-16T07:24:21.504Z,102062.69
2019-05-16T07:26:53.389Z,102061.09
2019-05-16T07:29:25.178Z,102054.91
2019-05-16T07:31:56.464Z,102059.69
2019-05-16T07:34:33.503Z,102062.48
2019-05-16T07:37:04.688Z,102055.80
2019-05-16T07:39:38.660Z,102053.16
2019-05-16T07:42:11.097Z,102052.45
2019-05-16T07:44:42.972Z,102048.00
2019-05-16T07:47:32.061Z,102058.61
2019-05-16T07:50:04.857Z,102045.84
2019-05-16T07:52:36.914Z,102047.57
2019-05-16T07:55:21.578Z,102056.47
2019-05-16T07:58:13.319Z,102035.34
2019-05-16T08:00:56.865Z,102027.84
2019-05-16T08:03:20.226Z,102033.48
2019-05-16T08:05:51.983Z,102025.48
2019-05-16T08:08:24.487Z,102017.84
2019-05-16T08:10:56.179Z,102012.03
2019-05-16T08:13:27.660Z,102015.27
2019-05-16T08:16:01.193Z,102017.99
2019-05-16T08:18:32.343Z,102011.07
2019-05-16T08:21:03.722Z,102011.66
2019-05-16T08:23:35.123Z,102007.78
2019-05-16T08:26:06.600Z,102013.30
2019-05-16T08:28:41.020Z,102009.27
2019-05-16T08:33:45.464Z,102004.13
2019-05-16T08:36:16.849Z,102003.23
2019-05-16T08:38:51.629Z,102002.58
2019-05-16T08:41:22.300Z,101995.11
2019-05-16T08:43:55.536Z,101995.80
2019-05-16T08:46:27.012Z,101990.10
2019-05-16T08:49:01.097Z,101989.56
2019-05-16T08:51:33.456Z,101982.79
2019-05-16T08:54:06.282Z,101985.16
2019-05-16T08:56:43.743Z,101978.13
2019-05-16T08:59:13.474Z,101975.23
2019-05-16T09:01:51.958Z,101969.70
2019-05-16T09:04:17.624Z,101968.16
2019-05-16T09:06:53.078Z,101970.48
2019-05-16T09:09:41.031Z,101975.48
2019-05-16T09:10:20.961Z,102005.55
2019-05-16T09:12:00.362Z,101975.73
2019-05-16T09:14:35.445Z,101969.41
2019-05-16T09:17:07.491Z,101973.56
2019-05-16T09:19:40.020Z,101970.75
2019-05-16T09:22:12.802Z,101977.30
2019-05-16T09:24:44.291Z,101975.98
2019-05-16T09:27:17.905Z,101951.59
2019-05-16T09:29:49.393Z,101957.16
2019-05-16T09:32:21.940Z,101954.59
2019-05-16T09:34:57.327Z,101943.39
2019-05-16T09:37:29.581Z,101937.14
2019-05-16T09:40:01.076Z,101932.17
2019-05-16T09:42:32.793Z,101940.22
2019-05-16T09:45:07.860Z,101932.48
2019-05-16T09:47:39.386Z,101922.91
2019-05-16T09:50:13.329Z,101921.09
2019-05-16T09:52:47.256Z,101920.12
2019-05-16T09:55:18.516Z,101922.06
2019-05-16T09:57:49.991Z,101919.25
2019-05-16T10:00:26.704Z,101926.17
2019-05-16T10:02:59.767Z,101921.95
2019-05-16T10:05:32.026Z,101915.13
2019-05-16T10:08:07.108Z,101917.35
2019-05-16T10:10:38.898Z,101911.31
2019-05-16T10:13:10.528Z,101914.41
2019-05-16T10:15:56.896Z,101909.88
2019-05-16T10:18:30.673Z,101906.72
2019-05-16T10:21:02.049Z,101914.53
2019-05-16T10:23:36.288Z,101900.48
2019-05-16T10:26:08.828Z,101891.77
2019-05-16T10:28:40.293Z,101909.72
2019-05-16T10:31:13.843Z,101894.64
2019-05-16T10:33:47.799Z,101904.77
2019-05-16T10:36:21.684Z,101901.05
2019-05-16T10:38:51.796Z,101899.34
2019-05-16T10:41:24.647Z,101896.59
2019-05-16T10:43:57.825Z,101889.94
2019-05-16T10:46:29.182Z,101881.94
2019-05-16T10:49:01.257Z,101884.14
2019-05-16T10:51:32.714Z,101886.53
2019-05-16T10:54:13.112Z,101874.61
2019-05-16T10:56:40.207Z,101878.47
2019-05-16T10:59:48.746Z,101876.46
2019-05-16T11:01:43.655Z,101871.56
2019-05-16T11:04:28.552Z,101874.37
2019-05-16T11:06:49.442Z,101869.30
2019-05-16T11:09:20.779Z,101862.97
2019-05-16T11:11:52.636Z,101862.47
2019-05-16T11:14:27.977Z,101863.87
2019-05-16T11:16:58.160Z,101863.81
2019-05-16T11:19:32.083Z,101862.36
2019-05-16T11:22:04.476Z,101847.02
2019-05-16T11:24:37.703Z,101842.38
2019-05-16T11:27:09.799Z,101847.38
2019-05-16T11:29:47.133Z,101841.41
2019-05-16T11:32:17.787Z,101836.20
2019-05-16T11:34:49.199Z,101848.83
2019-05-16T11:39:58.527Z,101837.02
2019-05-16T11:42:30.724Z,101828.36
2019-05-16T11:45:02.353Z,101834.11
2019-05-16T11:47:36.828Z,101835.91
2019-05-16T11:50:08.678Z,101829.80
2019-05-16T11:52:41.336Z,101823.93
2019-05-16T11:55:13.218Z,101813.73
2019-05-16T11:57:47.945Z,101803.32
2019-05-16T12:00:20.145Z,101798.27
2019-05-16T12:02:51.953Z,101800.69
2019-05-16T12:05:27.136Z,101802.14
2019-05-16T12:08:00.691Z,101805.06
2019-05-16T12:10:50.458Z,101801.41
2019-05-16T12:13:29.748Z,101789.56
2019-05-16T12:15:57.735Z,101778.20
2019-05-16T12:18:30.815Z,101776.28
2019-05-16T12:21:07.811Z,101785.94
2019-05-16T12:23:39.487Z,101770.33
2019-05-16T12:26:10.983Z,101768.07
2019-05-16T12:28:42.524Z,101771.25
2019-05-16T12:31:17.444Z,101766.48
2019-05-16T12:33:49.004Z,101763.92
2019-05-16T12:36:22.037Z,101757.10
2019-05-16T12:38:57.446Z,101754.16
2019-05-16T12:41:28.858Z,101742.27
2019-05-16T12:44:03.989Z,101746.55
2019-05-16T12:46:36.517Z,101754.16
2019-05-16T12:49:08.102Z,101753.42
2019-05-16T12:51:39.539Z,101745.50
2019-05-16T12:54:10.933Z,101743.88
2019-05-16T12:56:42.244Z,101747.34
2019-05-16T12:59:20.507Z,101741.79
2019-05-16T13:01:48.166Z,101738.58
2019-05-16T13:04:20.703Z,101738.79
2019-05-16T13:06:52.079Z,101734.16
2019-05-16T13:09:26.571Z,101733.02
2019-05-16T13:11:58.837Z,101726.44
2019-05-16T13:14:30.664Z,101724.56
2019-05-16T13:17:02.028Z,101721.25
2019-05-16T13:19:34.733Z,101711.90
2019-05-16T13:22:27.751Z,101710.23
2019-05-16T13:25:29.502Z,101701.69
2019-05-16T13:28:07.903Z,101689.60
2019-05-16T13:30:37.734Z,101695.48
2019-05-16T13:33:09.998Z,101693.44
2019-05-16T13:35:41.518Z,101689.80
2019-05-16T13:38:17.223Z,101681.59
2019-05-16T13:40:47.730Z,101679.10
2019-05-16T13:43:22.140Z,101675.59
2019-05-16T13:45:54.110Z,101679.80
2019-05-16T13:48:26.746Z,101681.12
2019-05-16T13:51:10.981Z,101681.98
2019-05-16T13:53:33.720Z,101680.34
2019-05-16T13:56:11.312Z,101676.28
2019-05-16T13:58:38.692Z,101671.41
2019-05-16T14:01:10.319Z,101669.24
2019-05-16T14:03:48.038Z,101684.38
2019-05-16T14:06:18.805Z,101679.25
2019-05-16T14:08:50.878Z,101678.58
2019-05-16T14:11:22.325Z,101676.64
2019-05-16T14:14:04.710Z,101682.97
2019-05-16T14:16:40.045Z,101675.14
2019-05-16T14:19:17.483Z,101664.55
2019-05-16T14:21:51.819Z,101669.81
2019-05-16T14:24:23.744Z,101653.00
2019-05-16T14:26:57.335Z,101651.98
2019-05-16T14:29:30.966Z,101649.61
2019-05-16T14:32:03.241Z,101645.91
2019-05-16T14:34:38.131Z,101640.15
2019-05-16T14:37:08.567Z,101643.34
2019-05-16T14:39:39.818Z,101649.39
2019-05-16T14:42:13.412Z,101648.42
2019-05-16T14:45:03.720Z,101651.48
2019-05-16T14:47:21.359Z,101641.02
2019-05-16T14:49:53.507Z,101646.66
2019-05-16T14:52:27.119Z,101643.18
2019-05-16T14:55:07.340Z,101648.33
2019-05-16T14:57:38.197Z,101646.28
2019-05-16T15:00:11.662Z,101644.69
2019-05-16T15:02:43.266Z,101633.44
2019-05-16T15:05:15.091Z,101623.91
2019-05-16T15:07:48.332Z,101624.00
2019-05-16T15:10:20.448Z,101619.54
2019-05-16T15:12:51.919Z,101619.95
2019-05-16T15:15:25.638Z,101607.88
2019-05-16T15:18:07.723Z,101606.94
2019-05-16T15:20:38.051Z,101594.70
2019-05-16T15:23:09.378Z,101595.28
2019-05-16T15:25:42.558Z,101601.45
2019-05-16T15:28:17.398Z,101600.10
2019-05-16T15:30:53.206Z,101596.86
2019-05-16T15:33:27.343Z,101584.81
2019-05-16T15:36:08.387Z,101583.21
2019-05-16T15:38:39.155Z,101575.61
2019-05-16T15:41:13.223Z,101573.14
2019-05-16T15:43:50.901Z,101571.23
2019-05-16T15:46:22.909Z,101567.91
2019-05-16T15:48:57.060Z,101566.56
2019-05-16T15:51:29.231Z,101569.58
2019-05-16T15:54:07.005Z,101565.44
2019-05-16T15:56:41.615Z,101566.62
2019-05-16T15:59:13.070Z,101562.40
2019-05-16T16:01:47.205Z,101562.17
2019-05-16T16:04:17.612Z,101557.17
2019-05-16T16:06:49.193Z,101561.30
2019-05-16T16:09:20.917Z,101562.83
2019-05-16T16:11:53.005Z,101556.94
2019-05-16T16:14:27.500Z,101576.01
2019-05-16T16:17:01.377Z,101562.83
2019-05-16T16:19:32.996Z,101564.58
2019-05-16T16:22:07.284Z,101558.82
2019-05-16T16:24:38.048Z,101564.47
2019-05-16T16:27:10.399Z,101564.47
2019-05-16T16:29:42.201Z,101564.70
2019-05-16T16:32:13.428Z,101558.29
2019-05-16T16:34:50.176Z,101565.27
2019-05-16T16:37:21.586Z,101570.48
2019-05-16T16:39:59.793Z,101563.58
2019-05-16T16:42:27.243Z,101563.27
2019-05-16T16:45:00.279Z,101557.09
2019-05-16T16:47:32.817Z,101559.68
2019-05-16T16:50:13.597Z,101561.44
2019-05-16T16:52:47.564Z,101559.28
2019-05-16T16:55:20.439Z,101561.02
2019-05-16T16:57:55.953Z,101567.92
2019-05-16T17:00:27.953Z,101562.85
2019-05-16T17:03:06.165Z,101562.85
2019-05-16T17:05:36.998Z,101562.73
2019-05-16T17:08:07.918Z,101518.79
2019-05-16T17:10:47.595Z,101548.77
2019-05-16T17:13:27.572Z,101581.64
2019-05-16T17:15:59.181Z,101568.77
2019-05-16T17:18:30.533Z,101564.81
2019-05-16T17:21:01.893Z,101551.87
2019-05-16T17:23:33.268Z,101553.98
2019-05-16T17:26:07.079Z,101566.99
2019-05-16T17:31:27.084Z,101567.56
2019-05-16T17:33:59.048Z,101566.64
2019-05-16T17:36:30.325Z,101567.09
2019-05-16T17:39:01.638Z,101559.52
2019-05-16T17:41:36.708Z,101552.26
2019-05-16T17:44:07.725Z,101551.77
2019-05-16T17:46:40.970Z,101544.18
2019-05-16T17:49:12.186Z,101541.64
2019-05-16T17:51:43.447Z,101539.89
2019-05-16T17:54:17.094Z,101537.02
2019-05-16T17:56:48.219Z,101530.54
2019-05-16T17:59:19.989Z,101543.42
2019-05-16T18:01:51.265Z,101535.59
2019-05-16T18:04:22.721Z,101552.13
2019-05-16T18:06:54.004Z,101546.97
2019-05-16T18:09:27.561Z,101543.95
2019-05-16T18:11:58.266Z,101538.48
2019-05-16T18:14:30.165Z,101542.08
2019-05-16T18:17:02.367Z,101549.63
2019-05-16T18:19:33.707Z,101544.93
2019-05-16T18:22:07.488Z,101542.69
2019-05-16T18:24:39.098Z,101541.75
2019-05-16T18:27:10.651Z,101541.75
2019-05-16T18:29:41.857Z,101534.77
2019-05-16T18:32:13.201Z,101523.25
2019-05-16T18:34:45.322Z,101527.70
2019-05-16T18:37:17.344Z,101508.52
2019-05-16T18:39:49.381Z,101524.55
2019-05-16T18:42:20.621Z,101517.50
2019-05-16T18:44:51.889Z,101522.13
2019-05-16T18:47:23.282Z,101527.92
2019-05-16T18:50:18.058Z,101529.34
2019-05-16T18:52:49.958Z,101533.08
2019-05-16T18:55:22.233Z,101533.49
2019-05-16T18:57:53.698Z,101524.75
2019-05-16T19:00:26.788Z,101539.44
2019-05-16T19:02:59.327Z,101532.34
2019-05-16T19:05:31.402Z,101533.42
2019-05-16T19:08:06.978Z,101534.25
2019-05-16T19:10:39.486Z,101533.88
2019-05-16T19:13:12.567Z,101535.86
2019-05-16T19:15:49.333Z,101527.08
2019-05-16T19:18:20.165Z,101534.06
2019-05-16T19:20:51.891Z,101539.38
2019-05-16T19:23:23.495Z,101537.58
2019-05-16T19:25:56.982Z,101526.25
2019-05-16T19:28:32.233Z,101537.50
2019-05-16T19:31:06.429Z,101524.16
2019-05-16T19:33:37.168Z,101521.28
2019-05-16T19:36:08.900Z,101520.42
2019-05-16T19:38:40.201Z,101515.37
2019-05-16T19:41:12.005Z,101513.69
2019-05-16T19:43:43.242Z,101518.74
2019-05-16T19:46:17.107Z,101509.81
2019-05-16T19:48:49.083Z,101513.09
2019-05-16T19:51:21.674Z,101507.05
2019-05-16T19:53:53.649Z,101507.16
2019-05-16T19:56:27.000Z,101517.55
2019-05-16T19:58:58.153Z,101505.44
2019-05-16T20:01:29.711Z,101513.70
2019-05-16T20:04:01.300Z,101508.05
2019-05-16T20:06:32.841Z,101512.35
2019-05-16T20:09:07.115Z,101508.88
2019-05-16T20:11:39.109Z,101512.91
2019-05-16T20:14:10.512Z,101502.75
2019-05-16T20:16:42.164Z,101499.94
2019-05-16T20:19:13.852Z,101498.30
2019-05-16T20:21:47.560Z,101494.94
2019-05-16T20:24:19.510Z,101500.28
2019-05-16T20:26:53.317Z,101499.20
2019-05-16T20:29:27.220Z,101488.17
2019-05-16T20:31:59.504Z,101484.66
2019-05-16T20:35:08.485Z,101490.67
2019-05-16T20:37:38.449Z,101489.18
2019-05-16T20:40:12.445Z,101491.38
2019-05-16T20:42:43.471Z,101493.89
2019-05-16T20:45:17.088Z,101490.67
2019-05-16T20:47:48.698Z,101494.78
2019-05-16T20:50:19.971Z,101500.20
2019-05-16T20:52:51.321Z,101496.64
2019-05-16T20:55:22.771Z,101499.27
2019-05-16T20:57:53.988Z,101493.62
2019-05-16T21:00:26.821Z,101494.44
2019-05-16T21:03:01.054Z,101497.54
2019-05-16T21:05:32.244Z,101487.86
2019-05-16T21:08:03.491Z,101499.00
2019-05-16T21:10:34.741Z,101492.31
2019-05-16T21:13:07.175Z,101488.88
2019-05-16T21:15:38.996Z,101476.84
2019-05-16T21:18:10.220Z,101476.84
2019-05-16T21:20:41.570Z,101480.16
2019-05-16T21:23:16.695Z,101479.28
2019-05-16T21:25:48.617Z,101472.49
2019-05-16T21:28:20.056Z,101475.77
2019-05-16T21:30:51.187Z,101470.73
2019-05-16T21:33:22.388Z,101480.67
2019-05-16T21:35:56.384Z,101463.16
2019-05-16T21:38:28.369Z,101472.67
2019-05-16T21:40:59.928Z,101465.77
2019-05-16T21:43:31.484Z,101454.20
2019-05-16T21:46:02.954Z,101462.53
2019-05-16T21:48:36.879Z,101453.61
2019-05-16T21:51:08.031Z,101449.36
2019-05-16T21:53:39.439Z,101442.10
2019-05-16T21:56:10.875Z,101433.51
2019-05-16T21:58:42.090Z,101440.56
2019-05-16T22:01:17.708Z,101435.41
2019-05-16T22:03:49.044Z,101430.81
2019-05-16T22:06:20.473Z,101427.67
2019-05-16T22:08:51.768Z,101422.01
2019-05-16T22:11:23.163Z,101424.09
2019-05-16T22:13:57.019Z,101417.34
2019-05-16T22:16:28.463Z,101427.54
2019-05-16T22:18:59.715Z,101418.42
2019-05-16T22:21:31.082Z,101419.55
2019-05-16T22:24:06.624Z,101419.00
2019-05-16T22:26:37.764Z,101403.96
2019-05-16T22:29:09.483Z,101413.56
2019-05-16T22:31:40.728Z,101411.88
2019-05-16T22:34:11.938Z,101404.44
2019-05-16T22:36:43.139Z,101399.34
2019-05-16T22:39:17.321Z,101399.80
2019-05-16T22:41:48.993Z,101400.41
2019-05-16T22:44:20.224Z,101401.14
2019-05-16T22:48:00.190Z,101409.53
2019-05-16T22:50:31.461Z,101398.34
2019-05-16T22:53:02.703Z,101404.49
2019-05-16T22:55:37.118Z,101403.38
2019-05-16T22:58:09.764Z,101404.69
2019-05-16T23:00:41.841Z,101410.12
2019-05-16T23:03:14.044Z,101407.72
2019-05-16T23:05:47.315Z,101402.94
2019-05-16T23:08:19.031Z,101394.41
2019-05-16T23:10:50.444Z,101399.90
2019-05-16T23:13:21.735Z,101401.78
2019-05-16T23:15:53.006Z,101408.49
2019-05-16T23:18:26.571Z,101396.36
2019-05-16T23:20:57.610Z,101395.94
2019-05-16T23:23:29.406Z,101397.41
2019-05-16T23:26:00.735Z,101395.48
2019-05-16T23:28:32.166Z,101399.20
2019-05-16T23:31:03.413Z,101399.33
2019-05-16T23:33:36.578Z,101408.98
2019-05-16T23:36:07.950Z,101410.44
2019-05-16T23:38:39.647Z,101414.70
2019-05-16T23:41:11.271Z,101419.48
2019-05-16T23:43:42.613Z,101438.95
2019-05-16T23:46:13.826Z,101459.91
2019-05-16T23:48:47.224Z,101484.52
2019-05-16T23:51:19.119Z,101534.30
2019-05-16T23:53:50.849Z,101573.38
2019-05-16T23:56:22.116Z,101620.06
2019-05-16T23:58:56.996Z,101678.53
